• Join FlightAware (Why Join?)
  • Login
  • US Flag 
08:55PM EDT


 

Airport Tracker/Info


-or-


 

Live Flight TrackerFlight Track Log ✈ RPA4911 ✈ 12-Jul-2013 ✈ KALB - KEWR

Flight Track Log - Related Links

Times and Time Zones

All times are in EDT time to prevent confusion due to time zone crossing. See the RPA4911 flight status page for this flight to view local times or setup timezone preferences in your user account.

Time Position Orientation Groundspeed Altitude Reporting Facility
EDT Latitude Longitude Course Direction KTS MPH feet Rate Location/Type
06:07AM 42.7694 -73.8089 200° South 165 190 1,500  Level Boston Center
06:08AM 42.7958 -73.8719 300° West 232 267 4,200 2,160 Climbing Boston Center
06:08AM 42.7597 -73.9078 216° Southwest 237 273 5,600 2,220 Climbing Boston Center
06:09AM 42.4594 -73.8551 196° South  Level Estimated
06:09AM 42.6908 -73.9147 184° South 223 257 8,200  Level Boston Center
06:10AM 42.3629 -73.8727 197° South  Level Estimated
06:10AM 42.6197 -73.9356 192° South 245 282 10,500  Level Boston Center
06:11AM 42.2876 -73.9564 219° Southwest  Level FlightAware Approximate
06:11AM 42.5383 -73.9533 189° South 265 305 12,600  Level Boston Center
06:12AM 42.1907 -73.9696 200° South  Level Estimated
06:13AM 42.4608 -73.9822 195° South 279 321 14,000  Level Boston Center
06:14AM 42.3664 -74.0194 196° South 311 358 14,000  Level Boston Center
06:15AM 42.2639 -74.0589 196° South 343 395 14,000  Level Boston Center
06:16AM 42.1800 -74.0931 197° South 348 400 14,100  Climbing Boston Center
06:17AM 42.0897 -74.1269 196° South 348 400 14,100 -300 Level Boston Center
06:18AM 41.9872 -74.1661 196° South 348 400 13,500 -840 Descending Boston Center
06:19AM 41.9033 -74.1975 196° South 340 391 12,500 -1,020 Descending Boston Center
06:20AM 41.8047 -74.2364 196° South 347 399 11,500 -900 Descending Boston Center
06:21AM 41.7250 -74.2647 195° South 341 392 10,800 -720 Descending Boston Center
06:22AM 41.6286 -74.3008 196° South 334 384 10,100 -720 Descending Boston Center
06:23AM 41.5592 -74.3294 197° South 315 362 9,400 -1,020 Descending Boston Center
06:25AM 41.4000 -74.4000 198° South 273 314 7,100 -780 Descending New York TRACON
06:26AM 41.3167 -74.4333 197° South 270 311 7,000 -60 Descending New York TRACON
06:27AM 41.2500 -74.4667 201° Southwest 275 316 7,000  Level New York TRACON
06:28AM 41.1833 -74.4833 191° South 274 315 7,000 -240 Level New York TRACON
06:29AM 41.1000 -74.5167 197° South 270 311 6,600 -480 Descending New York TRACON
06:29AM 41.0500 -74.5167 180° South 272 313 6,200 -600 Descending New York TRACON
06:30AM 40.9667 -74.5333 189° South 268 308 5,600 -600 Descending New York TRACON
06:31AM 40.9000 -74.5167 169° South 266 306 5,100 -360 Descending New York TRACON
06:32AM 40.8333 -74.5000 169° South 264 304 5,000 -360 Descending New York TRACON
06:33AM 40.7667 -74.4833 169° South 263 303 4,500 -600 Descending New York TRACON
06:34AM 40.6833 -74.4667 171° South 262 302 3,800 -960 Descending New York TRACON
06:35AM 40.6500 -74.4000 123° Southeast 238 274 2,700 -1,020 Descending New York TRACON
06:36AM 40.6333 -74.3500 114° Southeast 191 220 2,000 -780 Descending New York TRACON